Time;durP1;ratioP1;P1;durP2;ratioP2;P2;SDS_P1;SDS_P2;PMS_P1;PMS_P2;Temp;Humidity;BMP_temperature;BMP_pressure;BME280_temperature;BME280_humidity;BME280_pressure;Samples;Min_cycle;Max_cycle;Signal;HPM_P1;HPM_P2
2024/03/19 00:01:33;;;;;;;23.90;10.40;;;;;;;;;;5027947;28;20029;-71
2024/03/19 00:03:59;;;;;;;29.98;9.98;;;;;;;;;;5029399;28;20375;-70
2024/03/19 00:06:24;;;;;;;25.40;10.33;;;;;;;;;;5028902;28;20044;-70
2024/03/19 00:08:49;;;;;;;25.33;10.10;;;;;;;;;;5029251;28;20256;-70
2024/03/19 00:11:14;;;;;;;31.57;9.87;;;;;;;;;;5028746;28;20013;-70
2024/03/19 00:13:39;;;;;;;27.60;11.10;;;;;;;;;;5024473;28;20703;-70
2024/03/19 00:16:05;;;;;;;22.20;8.80;;;;;;;;;;5029228;28;20256;-71
2024/03/19 00:18:30;;;;;;;23.60;10.02;;;;;;;;;;5029023;28;20817;-70
2024/03/19 00:20:55;;;;;;;22.47;9.50;;;;;;;;;;5029195;28;20476;-70
2024/03/19 00:23:20;;;;;;;24.37;9.60;;;;;;;;;;5028054;28;20260;-70
2024/03/19 00:25:46;;;;;;;27.50;11.10;;;;;;;;;;5027327;28;20832;-70
2024/03/19 00:28:11;;;;;;;28.98;9.50;;;;;;;;;;5027780;28;20055;-70
2024/03/19 00:30:36;;;;;;;18.55;9.02;;;;;;;;;;5029194;28;20121;-70
2024/03/19 00:33:01;;;;;;;26.48;9.68;;;;;;;;;;5031051;28;20021;-70
2024/03/19 00:35:26;;;;;;;24.70;9.50;;;;;;;;;;5032058;28;20044;-70
2024/03/19 00:37:52;;;;;;;23.93;10.10;;;;;;;;;;5029622;28;20075;-70
2024/03/19 00:40:17;;;;;;;34.17;10.32;;;;;;;;;;5025012;28;20671;-70
2024/03/19 00:42:45;;;;;;;25.30;10.02;;;;;;;;;;5032377;28;20461;-70
2024/03/19 00:45:11;;;;;;;27.15;10.27;;;;;;;;;;5030429;28;20025;-70
2024/03/19 00:47:36;;;;;;;21.23;10.40;;;;;;;;;;5024456;28;20383;-70
2024/03/19 00:50:02;;;;;;;27.70;10.20;;;;;;;;;;5033086;28;20027;-70
2024/03/19 00:52:27;;;;;;;22.05;9.18;;;;;;;;;;5031570;28;20059;-70
2024/03/19 00:54:52;;;;;;;24.05;9.40;;;;;;;;;;5024093;28;20040;-70
2024/03/19 00:57:17;;;;;;;22.92;8.68;;;;;;;;;;5030768;28;20030;-71
2024/03/19 00:59:43;;;;;;;22.35;8.65;;;;;;;;;;5031184;28;20140;-71
2024/03/19 01:02:08;;;;;;;25.48;8.73;;;;;;;;;;5031731;28;20025;-70
2024/03/19 01:04:36;;;;;;;24.50;9.57;;;;;;;;;;5027940;28;20021;-70
2024/03/19 01:07:01;;;;;;;22.48;8.35;;;;;;;;;;5030964;28;20303;-71
2024/03/19 01:09:27;;;;;;;22.95;8.60;;;;;;;;;;5031176;28;20017;-70
2024/03/19 01:11:53;;;;;;;19.17;8.00;;;;;;;;;;5031315;28;20025;-70
2024/03/19 01:14:18;;;;;;;25.23;8.70;;;;;;;;;;5031782;28;20404;-71
2024/03/19 01:16:43;;;;;;;20.90;9.25;;;;;;;;;;5031648;28;20022;-70
2024/03/19 01:19:08;;;;;;;23.10;9.93;;;;;;;;;;5030967;28;20053;-70
2024/03/19 01:21:33;;;;;;;23.20;9.30;;;;;;;;;;5026321;28;20291;-71
2024/03/19 01:23:59;;;;;;;27.20;10.20;;;;;;;;;;5031191;28;20284;-70
2024/03/19 01:26:24;;;;;;;29.25;10.38;;;;;;;;;;5026296;28;20022;-70
2024/03/19 01:28:49;;;;;;;23.55;9.15;;;;;;;;;;5030956;28;20029;-71
2024/03/19 01:31:14;;;;;;;19.20;8.85;;;;;;;;;;5031228;28;20064;-70
2024/03/19 01:33:40;;;;;;;26.80;9.00;;;;;;;;;;5031216;28;20057;-71
2024/03/19 01:36:05;;;;;;;22.63;8.65;;;;;;;;;;5029381;28;20272;-70
2024/03/19 01:38:30;;;;;;;24.17;9.10;;;;;;;;;;5025310;28;20017;-70
2024/03/19 01:40:56;;;;;;;19.70;9.10;;;;;;;;;;5033341;28;20021;-71
2024/03/19 01:43:21;;;;;;;26.67;9.18;;;;;;;;;;5030423;28;20305;-70
2024/03/19 01:46:05;;;;;;;33.97;8.90;;;;;;;;;;5030228;28;20040;-71
2024/03/19 01:48:31;;;;;;;24.35;9.50;;;;;;;;;;5024340;28;20033;-70
2024/03/19 01:50:56;;;;;;;25.83;8.60;;;;;;;;;;5030738;28;20029;-70
2024/03/19 01:53:21;;;;;;;24.20;8.83;;;;;;;;;;5031021;28;20026;-70
2024/03/19 01:55:46;;;;;;;25.57;9.33;;;;;;;;;;5026699;28;20268;-70
2024/03/19 01:58:11;;;;;;;26.03;8.77;;;;;;;;;;5030409;28;20732;-70
2024/03/19 02:00:37;;;;;;;21.33;9.47;;;;;;;;;;5030105;28;20275;-70
2024/03/19 02:03:02;;;;;;;19.92;9.38;;;;;;;;;;5029962;28;20291;-70
2024/03/19 02:05:27;;;;;;;19.95;9.50;;;;;;;;;;5030564;28;20032;-70
2024/03/19 02:07:52;;;;;;;20.73;8.30;;;;;;;;;;5025510;28;20080;-71
2024/03/19 02:10:18;;;;;;;25.97;9.27;;;;;;;;;;5029099;28;20268;-70
2024/03/19 02:12:43;;;;;;;23.35;10.63;;;;;;;;;;5022325;28;20782;-70
2024/03/19 02:15:10;;;;;;;18.92;8.95;;;;;;;;;;5028509;28;20465;-70
2024/03/19 02:17:35;;;;;;;24.95;9.13;;;;;;;;;;5030361;28;20056;-70
2024/03/19 02:20:00;;;;;;;26.08;9.35;;;;;;;;;;5030389;28;20472;-71
2024/03/19 02:22:27;;;;;;;32.23;10.20;;;;;;;;;;5030593;28;20524;-71
2024/03/19 02:24:52;;;;;;;18.50;7.78;;;;;;;;;;5030419;28;20264;-71
2024/03/19 02:27:17;;;;;;;22.20;8.50;;;;;;;;;;5027372;28;21178;-70
2024/03/19 02:29:45;;;;;;;28.52;8.68;;;;;;;;;;5030254;28;20256;-71
2024/03/19 02:32:10;;;;;;;21.95;8.60;;;;;;;;;;5028345;28;20045;-70
2024/03/19 02:34:35;;;;;;;22.80;7.95;;;;;;;;;;5030262;28;20433;-70
2024/03/19 02:37:00;;;;;;;23.17;7.93;;;;;;;;;;5030049;28;20105;-70
2024/03/19 02:39:25;;;;;;;25.60;8.13;;;;;;;;;;5034269;28;20248;-70
2024/03/19 02:41:51;;;;;;;21.17;7.80;;;;;;;;;;5030156;28;20268;-70
2024/03/19 02:44:16;;;;;;;22.70;8.63;;;;;;;;;;5029207;28;20335;-70
2024/03/19 02:46:41;;;;;;;20.50;8.35;;;;;;;;;;5029985;28;20029;-71
2024/03/19 02:49:06;;;;;;;21.90;7.80;;;;;;;;;;5029818;28;20031;-70
2024/03/19 02:51:31;;;;;;;21.83;8.00;;;;;;;;;;5029960;28;20288;-71
2024/03/19 02:53:57;;;;;;;28.02;9.38;;;;;;;;;;5029493;28;20327;-70
2024/03/19 02:56:22;;;;;;;21.13;8.38;;;;;;;;;;5021512;28;20040;-70
2024/03/19 02:58:47;;;;;;;21.38;8.63;;;;;;;;;;5020785;28;20096;-71
2024/03/19 03:01:12;;;;;;;21.83;7.95;;;;;;;;;;5029373;28;20018;-70
2024/03/19 03:03:38;;;;;;;27.48;8.40;;;;;;;;;;5029934;28;20017;-70
2024/03/19 03:06:04;;;;;;;17.58;8.00;;;;;;;;;;5028584;28;20022;-70
2024/03/19 03:08:29;;;;;;;23.98;7.80;;;;;;;;;;5036781;28;20013;-70
2024/03/19 03:10:54;;;;;;;20.57;8.90;;;;;;;;;;5028058;28;20469;-70
2024/03/19 03:13:19;;;;;;;21.60;8.30;;;;;;;;;;5028051;28;20338;-70
2024/03/19 03:15:44;;;;;;;18.92;7.82;;;;;;;;;;5029344;28;20708;-70
2024/03/19 03:18:12;;;;;;;21.80;8.02;;;;;;;;;;5029115;28;20760;-71
2024/03/19 03:20:38;;;;;;;22.75;8.88;;;;;;;;;;5028931;28;20036;-70
2024/03/19 03:23:03;;;;;;;23.95;9.18;;;;;;;;;;5036264;28;20391;-70
2024/03/19 03:25:29;;;;;;;28.05;10.73;;;;;;;;;;5028960;28;20037;-70
2024/03/19 03:27:55;;;;;;;23.08;9.40;;;;;;;;;;5028355;28;20033;-71
2024/03/19 03:30:21;;;;;;;25.48;8.90;;;;;;;;;;5034092;28;20037;-71
2024/03/19 03:32:47;;;;;;;21.38;7.85;;;;;;;;;;5028003;28;20025;-71
2024/03/19 03:35:13;;;;;;;18.77;9.00;;;;;;;;;;5028955;28;20029;-71
2024/03/19 03:37:38;;;;;;;26.42;9.45;;;;;;;;;;5028978;28;20023;-70
2024/03/19 03:40:19;;;;;;;22.85;9.10;;;;;;;;;;5033265;28;20168;-70
2024/03/19 03:42:48;;;;;;;20.98;8.45;;;;;;;;;;5021814;28;20638;-70
2024/03/19 03:45:14;;;;;;;21.27;8.13;;;;;;;;;;5027867;28;20127;-71
2024/03/19 03:47:40;;;;;;;23.40;8.07;;;;;;;;;;5036131;28;20021;-70
2024/03/19 03:50:06;;;;;;;23.95;8.82;;;;;;;;;;5028714;28;20026;-71
2024/03/19 03:52:32;;;;;;;25.42;8.73;;;;;;;;;;5028496;28;20025;-71
2024/03/19 03:54:59;;;;;;;21.75;8.05;;;;;;;;;;5016557;28;20022;-71
2024/03/19 03:57:24;;;;;;;24.55;8.45;;;;;;;;;;5039578;28;20025;-70
2024/03/19 03:59:49;;;;;;;20.52;8.75;;;;;;;;;;5033726;28;20511;-70
2024/03/19 04:02:14;;;;;;;24.07;8.83;;;;;;;;;;5027812;28;20040;-70
2024/03/19 04:04:39;;;;;;;18.50;7.93;;;;;;;;;;5033474;28;20260;-70
2024/03/19 04:07:05;;;;;;;16.27;7.53;;;;;;;;;;5033823;28;20033;-71
2024/03/19 04:09:30;;;;;;;20.37;8.60;;;;;;;;;;5032787;28;20256;-70
2024/03/19 04:11:55;;;;;;;27.77;9.30;;;;;;;;;;5032559;28;20292;-71
2024/03/19 04:14:20;;;;;;;22.08;8.52;;;;;;;;;;5032758;28;20024;-70
2024/03/19 04:16:45;;;;;;;20.93;8.80;;;;;;;;;;5032279;28;20499;-71
2024/03/19 04:19:10;;;;;;;17.97;7.77;;;;;;;;;;5033053;28;20252;-70
2024/03/19 04:21:36;;;;;;;31.23;8.60;;;;;;;;;;5038395;28;20605;-70
2024/03/19 04:24:01;;;;;;;23.02;8.38;;;;;;;;;;5032907;28;20275;-71
2024/03/19 04:26:27;;;;;;;25.23;8.90;;;;;;;;;;5024947;28;20497;-70
2024/03/19 04:28:52;;;;;;;22.80;8.40;;;;;;;;;;5032479;28;20025;-70
2024/03/19 04:31:17;;;;;;;21.52;8.70;;;;;;;;;;5029603;28;20040;-71
2024/03/19 04:33:42;;;;;;;20.53;9.07;;;;;;;;;;5026119;28;20025;-71
2024/03/19 04:36:08;;;;;;;18.00;7.73;;;;;;;;;;5033224;28;20857;-70
2024/03/19 04:38:33;;;;;;;22.02;8.52;;;;;;;;;;5031568;28;20259;-71
2024/03/19 04:40:59;;;;;;;23.10;8.32;;;;;;;;;;5032130;28;20021;-71
2024/03/19 04:43:24;;;;;;;30.87;9.60;;;;;;;;;;5031967;28;20030;-71
2024/03/19 04:45:49;;;;;;;26.88;9.75;;;;;;;;;;5032270;28;20330;-70
2024/03/19 04:48:14;;;;;;;21.03;8.90;;;;;;;;;;5032235;28;20024;-70
2024/03/19 04:50:40;;;;;;;21.07;9.33;;;;;;;;;;5030088;28;20363;-70
2024/03/19 04:53:06;;;;;;;22.60;8.77;;;;;;;;;;5031308;28;20292;-70
2024/03/19 04:55:31;;;;;;;24.70;9.73;;;;;;;;;;5039340;28;20256;-70
2024/03/19 04:57:56;;;;;;;18.43;8.73;;;;;;;;;;5031916;28;20037;-70
2024/03/19 05:00:21;;;;;;;20.47;8.63;;;;;;;;;;5031747;28;20260;-70
2024/03/19 05:02:47;;;;;;;30.48;9.10;;;;;;;;;;5031889;28;20252;-71
2024/03/19 05:05:12;;;;;;;30.73;9.95;;;;;;;;;;5031093;28;20030;-71
2024/03/19 05:07:38;;;;;;;27.88;8.65;;;;;;;;;;5030370;28;20095;-70
2024/03/19 05:10:03;;;;;;;27.92;10.23;;;;;;;;;;5039344;28;20029;-71
2024/03/19 05:12:28;;;;;;;24.42;10.00;;;;;;;;;;5034963;28;20057;-70
2024/03/19 05:14:54;;;;;;;26.95;8.13;;;;;;;;;;5031874;28;20367;-70
2024/03/19 05:17:19;;;;;;;25.15;9.88;;;;;;;;;;5030279;28;20029;-70
2024/03/19 05:19:44;;;;;;;26.47;8.23;;;;;;;;;;5031486;28;20094;-70
2024/03/19 05:22:09;;;;;;;20.48;8.95;;;;;;;;;;5038709;28;20261;-71
2024/03/19 05:24:35;;;;;;;27.48;9.80;;;;;;;;;;5029692;28;20401;-70
2024/03/19 05:27:00;;;;;;;26.02;9.68;;;;;;;;;;5031003;28;20062;-70
2024/03/19 05:29:26;;;;;;;20.58;8.32;;;;;;;;;;5032209;28;20064;-71
2024/03/19 05:31:51;;;;;;;23.00;9.90;;;;;;;;;;5026241;28;20026;-70
2024/03/19 05:34:16;;;;;;;39.47;8.55;;;;;;;;;;5038049;28;20467;-71
2024/03/19 05:36:41;;;;;;;22.90;9.67;;;;;;;;;;5027471;28;20032;-70
2024/03/19 05:39:09;;;;;;;27.60;9.17;;;;;;;;;;5026414;28;20267;-70
2024/03/19 05:41:35;;;;;;;20.38;8.75;;;;;;;;;;5030421;28;20595;-70
2024/03/19 05:44:00;;;;;;;24.13;8.65;;;;;;;;;;5030407;28;20080;-70
2024/03/19 05:46:25;;;;;;;26.90;9.40;;;;;;;;;;5030145;28;20387;-70
2024/03/19 05:48:50;;;;;;;24.30;10.43;;;;;;;;;;5030170;28;20272;-70
2024/03/19 05:51:15;;;;;;;21.53;9.07;;;;;;;;;;5030169;28;20327;-70
2024/03/19 05:53:41;;;;;;;24.48;9.30;;;;;;;;;;5030570;28;20335;-70
2024/03/19 05:56:06;;;;;;;22.60;9.48;;;;;;;;;;5027763;28;20025;-70
2024/03/19 05:58:31;;;;;;;29.63;10.00;;;;;;;;;;5026237;28;20014;-71
2024/03/19 06:00:58;;;;;;;32.97;9.68;;;;;;;;;;5028270;28;20021;-70
2024/03/19 06:03:23;;;;;;;19.67;9.13;;;;;;;;;;5028642;28;20032;-70
2024/03/19 06:05:52;;;;;;;26.30;10.27;;;;;;;;;;5028525;28;20025;-71
2024/03/19 06:08:17;;;;;;;28.77;9.90;;;;;;;;;;5027224;28;20044;-70
2024/03/19 06:10:42;;;;;;;23.53;9.07;;;;;;;;;;5028125;28;20026;-70
2024/03/19 06:13:07;;;;;;;22.70;9.25;;;;;;;;;;5026728;28;20296;-71
2024/03/19 06:15:33;;;;;;;30.67;9.27;;;;;;;;;;5024193;28;20033;-70
2024/03/19 06:17:58;;;;;;;21.27;9.27;;;;;;;;;;5027969;28;20312;-70
2024/03/19 06:20:23;;;;;;;22.55;7.60;;;;;;;;;;5027384;28;20053;-70
2024/03/19 06:22:49;;;;;;;19.02;8.18;;;;;;;;;;5028217;28;20017;-70
2024/03/19 06:25:14;;;;;;;25.97;8.27;;;;;;;;;;5027711;28;20045;-71
2024/03/19 06:27:39;;;;;;;26.02;9.63;;;;;;;;;;5025507;28;20298;-70
2024/03/19 06:30:05;;;;;;;24.13;9.03;;;;;;;;;;5027113;28;20032;-71
2024/03/19 06:32:30;;;;;;;24.00;8.75;;;;;;;;;;5026044;28;20302;-70
2024/03/19 06:34:56;;;;;;;27.98;9.23;;;;;;;;;;5027439;28;20021;-70
2024/03/19 06:37:21;;;;;;;24.88;8.40;;;;;;;;;;5025978;28;20392;-70
2024/03/19 06:39:46;;;;;;;22.90;9.63;;;;;;;;;;5026892;28;20025;-71
2024/03/19 06:42:11;;;;;;;18.93;8.37;;;;;;;;;;5027313;28;20093;-70
2024/03/19 06:44:37;;;;;;;24.65;8.02;;;;;;;;;;5027664;28;20800;-71
2024/03/19 06:47:02;;;;;;;23.25;8.43;;;;;;;;;;5023532;28;20041;-71
2024/03/19 06:49:27;;;;;;;22.88;8.90;;;;;;;;;;5025584;28;20537;-70
2024/03/19 06:51:52;;;;;;;31.57;9.00;;;;;;;;;;5027279;28;20033;-71
2024/03/19 06:54:17;;;;;;;26.97;8.43;;;;;;;;;;5026228;28;20284;-68
2024/03/19 06:56:42;;;;;;;21.87;8.80;;;;;;;;;;5025187;28;20269;-69
2024/03/19 06:59:09;;;;;;;19.17;7.63;;;;;;;;;;5025328;28;20271;-69
2024/03/19 07:01:36;;;;;;;22.08;8.77;;;;;;;;;;5027425;28;21066;-69
2024/03/19 07:04:01;;;;;;;20.38;8.23;;;;;;;;;;5027519;28;20061;-68
2024/03/19 07:06:26;;;;;;;23.25;8.73;;;;;;;;;;5025797;28;20055;-69
2024/03/19 07:08:53;;;;;;;24.90;8.33;;;;;;;;;;5027591;28;20032;-68
2024/03/19 07:11:18;;;;;;;17.60;7.65;;;;;;;;;;5027006;28;20288;-71
2024/03/19 07:13:44;;;;;;;20.02;7.97;;;;;;;;;;5027617;28;20429;-69
2024/03/19 07:16:09;;;;;;;20.38;7.80;;;;;;;;;;5022409;28;20040;-68
2024/03/19 07:18:35;;;;;;;28.95;7.75;;;;;;;;;;5027080;28;20064;-68
2024/03/19 07:21:00;;;;;;;17.55;7.72;;;;;;;;;;5026681;28;20018;-68
2024/03/19 07:23:25;;;;;;;16.52;7.80;;;;;;;;;;5027384;28;20025;-69
2024/03/19 07:25:50;;;;;;;17.80;8.27;;;;;;;;;;5028474;28;20455;-69
2024/03/19 07:28:16;;;;;;;22.05;7.75;;;;;;;;;;5030153;28;20385;-68
2024/03/19 07:30:41;;;;;;;19.13;8.27;;;;;;;;;;5026600;28;20079;-68
2024/03/19 07:33:06;;;;;;;20.05;9.13;;;;;;;;;;5025864;28;20021;-68
2024/03/19 07:35:33;;;;;;;16.92;7.25;;;;;;;;;;5028855;28;20029;-68
2024/03/19 07:37:58;;;;;;;20.65;8.05;;;;;;;;;;5029106;28;20017;-68
2024/03/19 07:40:24;;;;;;;22.67;7.20;;;;;;;;;;5027314;28;20253;-69
2024/03/19 07:42:52;;;;;;;17.70;7.13;;;;;;;;;;5028756;28;20754;-68
2024/03/19 07:45:18;;;;;;;19.98;7.60;;;;;;;;;;5029642;28;20265;-69
2024/03/19 07:47:43;;;;;;;21.60;7.07;;;;;;;;;;5034251;28;20124;-68
2024/03/19 07:50:10;;;;;;;22.77;7.22;;;;;;;;;;5028249;28;20380;-68
2024/03/19 07:52:35;;;;;;;20.05;7.50;;;;;;;;;;5028327;28;20342;-68
2024/03/19 07:55:01;;;;;;;22.35;7.60;;;;;;;;;;5029194;28;20013;-68
2024/03/19 07:57:26;;;;;;;14.20;5.68;;;;;;;;;;5027579;28;20021;-68
2024/03/19 07:59:52;;;;;;;8.82;4.32;;;;;;;;;;5028586;28;20124;-68
2024/03/19 08:02:18;;;;;;;18.27;6.68;;;;;;;;;;5029848;28;20437;-68
2024/03/19 08:04:43;;;;;;;16.58;6.30;;;;;;;;;;5025344;28;20571;-68
2024/03/19 08:07:08;;;;;;;17.13;5.30;;;;;;;;;;5029405;28;20025;-69
2024/03/19 08:09:33;;;;;;;17.20;6.23;;;;;;;;;;5027771;28;20029;-68
2024/03/19 08:12:05;;;;;;;16.70;6.55;;;;;;;;;;5025319;28;20280;-68
2024/03/19 08:14:30;;;;;;;16.25;5.10;;;;;;;;;;5027417;28;20026;-68
2024/03/19 08:16:56;;;;;;;17.02;6.18;;;;;;;;;;5024369;28;20028;-68
2024/03/19 08:19:21;;;;;;;8.80;3.83;;;;;;;;;;5029601;28;20481;-68
2024/03/19 08:21:46;;;;;;;17.90;6.03;;;;;;;;;;5023259;28;20193;-68
2024/03/19 08:24:11;;;;;;;17.57;6.10;;;;;;;;;;5041104;28;20268;-68
2024/03/19 08:26:37;;;;;;;14.45;6.43;;;;;;;;;;5028022;28;20287;-68
2024/03/19 08:29:02;;;;;;;19.30;7.00;;;;;;;;;;5028270;28;20268;-68
2024/03/19 08:31:27;;;;;;;4.93;2.88;;;;;;;;;;5021276;28;20296;-68
2024/03/19 08:33:52;;;;;;;15.63;5.63;;;;;;;;;;5030434;28;20385;-68
2024/03/19 08:36:18;;;;;;;12.32;5.68;;;;;;;;;;5033860;28;20053;-68
2024/03/19 08:38:43;;;;;;;22.65;6.60;;;;;;;;;;5027465;28;20100;-68
2024/03/19 08:41:08;;;;;;;16.20;4.85;;;;;;;;;;5027811;28;20092;-68
2024/03/19 08:43:33;;;;;;;20.67;6.60;;;;;;;;;;5026093;28;20112;-68
2024/03/19 08:45:59;;;;;;;18.65;6.70;;;;;;;;;;5026154;28;20747;-68
2024/03/19 08:48:25;;;;;;;26.63;6.05;;;;;;;;;;5024294;28;20083;-69
2024/03/19 08:50:50;;;;;;;16.70;5.60;;;;;;;;;;5026157;28;20017;-68
2024/03/19 08:53:15;;;;;;;17.20;5.90;;;;;;;;;;5039302;28;20034;-68
2024/03/19 08:55:42;;;;;;;17.52;6.32;;;;;;;;;;5032166;28;20024;-68
2024/03/19 08:58:07;;;;;;;12.90;5.32;;;;;;;;;;5029194;28;20028;-68
2024/03/19 09:00:33;;;;;;;18.27;5.57;;;;;;;;;;5029756;28;20381;-69
2024/03/19 09:02:58;;;;;;;17.17;5.47;;;;;;;;;;5031713;28;20025;-68
2024/03/19 09:05:23;;;;;;;11.10;5.45;;;;;;;;;;5033278;28;20431;-68
2024/03/19 09:07:48;;;;;;;12.60;5.50;;;;;;;;;;5035325;28;20029;-69
2024/03/19 09:10:14;;;;;;;18.65;5.38;;;;;;;;;;5029822;28;20051;-68
2024/03/19 09:12:39;;;;;;;12.45;5.57;;;;;;;;;;5033533;28;20049;-68
2024/03/19 09:15:06;;;;;;;9.95;5.50;;;;;;;;;;5030810;28;20025;-68
2024/03/19 09:17:32;;;;;;;6.25;2.80;;;;;;;;;;5029068;28;20112;-68
2024/03/19 09:19:57;;;;;;;7.65;3.35;;;;;;;;;;5030443;28;20449;-68
2024/03/19 09:22:22;;;;;;;11.05;4.13;;;;;;;;;;5032542;28;20026;-68
2024/03/19 09:24:48;;;;;;;19.75;5.32;;;;;;;;;;5036350;28;20045;-68
2024/03/19 09:27:14;;;;;;;11.23;3.15;;;;;;;;;;5036417;28;20021;-68
2024/03/19 09:29:39;;;;;;;12.70;4.95;;;;;;;;;;5030619;28;20017;-68
2024/03/19 09:32:04;;;;;;;14.43;5.50;;;;;;;;;;5030636;28;20048;-68
2024/03/19 09:34:30;;;;;;;11.75;3.60;;;;;;;;;;5031008;28;20068;-68
2024/03/19 09:36:55;;;;;;;12.27;4.60;;;;;;;;;;5030457;28;20331;-68
2024/03/19 09:39:21;;;;;;;17.27;5.63;;;;;;;;;;5036722;28;20040;-68
2024/03/19 09:41:54;;;;;;;17.52;5.05;;;;;;;;;;5037857;28;20029;-68
2024/03/19 09:44:19;;;;;;;10.65;4.13;;;;;;;;;;5038278;28;20025;-69
2024/03/19 09:46:45;;;;;;;14.57;4.43;;;;;;;;;;5030939;28;20045;-69
2024/03/19 09:49:15;;;;;;;7.13;3.92;;;;;;;;;;5030844;28;20032;-69
2024/03/19 09:51:41;;;;;;;3.75;1.92;;;;;;;;;;5024640;28;20033;-69
2024/03/19 09:54:07;;;;;;;15.05;5.38;;;;;;;;;;5031014;28;20021;-69
2024/03/19 09:56:32;;;;;;;12.57;4.47;;;;;;;;;;5033694;28;20492;-69
2024/03/19 09:58:57;;;;;;;14.97;5.53;;;;;;;;;;5034862;28;20021;-69
2024/03/19 10:01:23;;;;;;;15.40;4.38;;;;;;;;;;5031717;28;20252;-69
2024/03/19 10:03:49;;;;;;;15.80;5.30;;;;;;;;;;5035494;28;20321;-68
2024/03/19 10:06:15;;;;;;;15.70;4.40;;;;;;;;;;5042815;28;20017;-68
2024/03/19 10:08:48;;;;;;;12.20;4.30;;;;;;;;;;5032521;28;20051;-69
2024/03/19 10:11:13;;;;;;;8.80;3.53;;;;;;;;;;5029806;28;20034;-68
2024/03/19 10:13:39;;;;;;;14.27;4.90;;;;;;;;;;5032134;28;20017;-69
2024/03/19 10:16:04;;;;;;;13.95;4.40;;;;;;;;;;5027083;28;20264;-69
2024/03/19 10:18:29;;;;;;;12.23;4.22;;;;;;;;;;5036709;28;20030;-69
2024/03/19 10:20:55;;;;;;;14.07;4.80;;;;;;;;;;5036083;28;20025;-70
2024/03/19 10:23:20;;;;;;;24.90;4.75;;;;;;;;;;5037485;28;20248;-69
2024/03/19 10:25:51;;;;;;;9.13;3.30;;;;;;;;;;5039780;28;20476;-69
2024/03/19 10:28:18;;;;;;;10.93;2.78;;;;;;;;;;5029566;28;20279;-69
2024/03/19 10:30:47;;;;;;;10.60;3.22;;;;;;;;;;5029344;28;20381;-69
2024/03/19 10:33:12;;;;;;;14.07;3.58;;;;;;;;;;5029351;28;20028;-70
2024/03/19 10:35:40;;;;;;;9.27;3.35;;;;;;;;;;5026965;28;20017;-69
2024/03/19 10:38:08;;;;;;;9.02;3.08;;;;;;;;;;5029656;28;20025;-70
2024/03/19 10:40:33;;;;;;;4.28;1.92;;;;;;;;;;5029142;28;20499;-69
2024/03/19 10:43:00;;;;;;;4.70;2.25;;;;;;;;;;5029342;28;20034;-68
2024/03/19 10:45:28;;;;;;;13.68;2.72;;;;;;;;;;5029764;28;20060;-69
2024/03/19 10:47:54;;;;;;;7.13;2.72;;;;;;;;;;5032670;28;20028;-70
2024/03/19 10:50:21;;;;;;;4.32;1.17;;;;;;;;;;5034936;28;20033;-69
2024/03/19 10:52:49;;;;;;;12.02;2.67;;;;;;;;;;5040740;28;20158;-69
2024/03/19 10:55:15;;;;;;;13.95;2.45;;;;;;;;;;5029196;28;20029;-69
2024/03/19 10:57:40;;;;;;;12.35;2.15;;;;;;;;;;5029224;28;20021;-69
2024/03/19 11:00:22;;;;;;;4.30;2.28;;;;;;;;;;5029183;28;20014;-69
2024/03/19 11:02:48;;;;;;;11.52;2.20;;;;;;;;;;5026022;28;20025;-69
2024/03/19 11:05:20;;;;;;;6.95;1.98;;;;;;;;;;5029625;28;20052;-70
2024/03/19 11:07:49;;;;;;;11.50;2.55;;;;;;;;;;5028339;28;20092;-69
2024/03/19 11:10:21;;;;;;;5.22;1.90;;;;;;;;;;5034454;28;20025;-69
2024/03/19 11:12:46;;;;;;;9.98;2.28;;;;;;;;;;5032749;28;20025;-69
2024/03/19 11:15:16;;;;;;;5.40;1.30;;;;;;;;;;5035414;28;20021;-69
2024/03/19 11:17:41;;;;;;;13.23;2.13;;;;;;;;;;5033321;28;20266;-69
2024/03/19 11:20:06;;;;;;;6.55;2.13;;;;;;;;;;5038219;28;20025;-69
2024/03/19 11:22:31;;;;;;;6.53;1.25;;;;;;;;;;5034630;28;20444;-69
2024/03/19 11:24:59;;;;;;;7.70;1.80;;;;;;;;;;5027730;28;20048;-69
2024/03/19 11:27:31;;;;;;;6.70;1.58;;;;;;;;;;5025800;28;20762;-69
2024/03/19 11:30:04;;;;;;;7.00;1.52;;;;;;;;;;5037145;28;20036;-69
2024/03/19 11:32:30;;;;;;;1.63;0.98;;;;;;;;;;5027799;28;20155;-69
2024/03/19 11:34:56;;;;;;;8.27;1.27;;;;;;;;;;5035108;28;20021;-69
2024/03/19 11:37:21;;;;;;;3.93;1.53;;;;;;;;;;5027786;28;20026;-69
2024/03/19 11:39:47;;;;;;;9.00;1.80;;;;;;;;;;5032735;28;20350;-69
2024/03/19 11:42:13;;;;;;;3.28;1.15;;;;;;;;;;5026992;28;20080;-69
2024/03/19 11:44:38;;;;;;;5.65;1.15;;;;;;;;;;5038816;28;20476;-69
2024/03/19 11:47:03;;;;;;;6.93;1.15;;;;;;;;;;5035249;28;20525;-69
2024/03/19 11:49:29;;;;;;;21.63;2.65;;;;;;;;;;5035057;28;20025;-69
2024/03/19 11:51:58;;;;;;;6.18;1.98;;;;;;;;;;5031779;28;20516;-69
2024/03/19 11:54:23;;;;;;;2.50;0.98;;;;;;;;;;5028788;28;20021;-69
2024/03/19 11:56:52;;;;;;;4.78;1.65;;;;;;;;;;5028827;28;20020;-69
2024/03/19 11:59:19;;;;;;;3.80;1.67;;;;;;;;;;5029123;28;20088;-69
2024/03/19 12:01:44;;;;;;;8.90;1.30;;;;;;;;;;5034868;28;20508;-69
2024/03/19 12:04:10;;;;;;;4.20;1.10;;;;;;;;;;5028934;28;20021;-69
2024/03/19 12:06:36;;;;;;;3.15;1.73;;;;;;;;;;5029070;28;20053;-69
2024/03/19 12:09:02;;;;;;;5.40;1.17;;;;;;;;;;5027532;28;20075;-69
2024/03/19 12:11:27;;;;;;;3.30;1.25;;;;;;;;;;5032680;28;20021;-69
2024/03/19 12:13:52;;;;;;;9.10;2.27;;;;;;;;;;5028721;28;20025;-69
2024/03/19 12:16:18;;;;;;;3.28;1.15;;;;;;;;;;5041003;28;20633;-69
2024/03/19 12:18:43;;;;;;;4.83;1.90;;;;;;;;;;5037999;28;20118;-69
2024/03/19 12:21:13;;;;;;;3.03;1.80;;;;;;;;;;5034173;28;20678;-69
2024/03/19 12:23:39;;;;;;;6.47;1.80;;;;;;;;;;5028186;28;20778;-69
2024/03/19 12:26:05;;;;;;;2.55;0.73;;;;;;;;;;5032575;28;20029;-69
2024/03/19 12:28:30;;;;;;;8.20;1.80;;;;;;;;;;5044219;28;20026;-69
2024/03/19 12:30:58;;;;;;;3.35;1.30;;;;;;;;;;5031580;28;20034;-70
2024/03/19 12:33:37;;;;;;;5.55;1.48;;;;;;;;;;5037962;28;20026;-69
2024/03/19 12:36:03;;;;;;;8.02;1.08;;;;;;;;;;5029798;28;20064;-69
2024/03/19 12:38:29;;;;;;;2.97;0.70;;;;;;;;;;5031754;28;20100;-69
2024/03/19 12:40:56;;;;;;;4.32;1.20;;;;;;;;;;5031286;28;20025;-69
2024/03/19 12:43:21;;;;;;;6.65;1.67;;;;;;;;;;5031315;28;20021;-69
2024/03/19 12:45:46;;;;;;;6.30;1.33;;;;;;;;;;5031369;28;20025;-69
2024/03/19 12:48:11;;;;;;;5.15;0.90;;;;;;;;;;5031253;28;20264;-69
2024/03/19 12:50:36;;;;;;;2.30;0.90;;;;;;;;;;5029245;28;20527;-69
2024/03/19 12:53:03;;;;;;;6.03;0.77;;;;;;;;;;5033134;28;20025;-70
2024/03/19 12:55:28;;;;;;;5.88;0.93;;;;;;;;;;5035181;28;20075;-69
2024/03/19 12:57:54;;;;;;;3.58;0.80;;;;;;;;;;5036554;28;20102;-69
2024/03/19 13:00:22;;;;;;;2.97;0.83;;;;;;;;;;5037804;28;20036;-69
2024/03/19 13:02:51;;;;;;;6.40;1.27;;;;;;;;;;5031940;28;20025;-69
2024/03/19 13:05:16;;;;;;;4.75;1.40;;;;;;;;;;5030293;28;20079;-69
2024/03/19 13:07:42;;;;;;;7.03;1.35;;;;;;;;;;5038550;28;20032;-69
2024/03/19 13:10:07;;;;;;;4.10;1.10;;;;;;;;;;5031136;28;20060;-69
2024/03/19 13:12:33;;;;;;;7.20;1.13;;;;;;;;;;5037477;28;20025;-69
2024/03/19 13:14:58;;;;;;;1.88;0.77;;;;;;;;;;5031216;28;20030;-69
2024/03/19 13:17:24;;;;;;;4.70;1.27;;;;;;;;;;5031931;28;20124;-69
2024/03/19 13:19:49;;;;;;;6.72;1.90;;;;;;;;;;5036167;28;20013;-69
2024/03/19 13:22:15;;;;;;;7.53;1.43;;;;;;;;;;5030274;28;20104;-69
2024/03/19 13:24:40;;;;;;;4.95;0.95;;;;;;;;;;5036446;28;20063;-69
2024/03/19 13:27:05;;;;;;;2.05;0.65;;;;;;;;;;5029784;28;20091;-70
2024/03/19 13:29:31;;;;;;;3.77;0.80;;;;;;;;;;5036945;28;20579;-69
2024/03/19 13:31:56;;;;;;;4.10;0.80;;;;;;;;;;5036645;28;20022;-69
2024/03/19 13:34:21;;;;;;;6.20;0.67;;;;;;;;;;5031394;28;20267;-70
2024/03/19 13:36:46;;;;;;;7.10;0.90;;;;;;;;;;5033681;28;20026;-69
2024/03/19 13:39:12;;;;;;;4.33;0.70;;;;;;;;;;5030142;28;20029;-69
2024/03/19 13:41:37;;;;;;;4.05;1.00;;;;;;;;;;5028012;28;20159;-69
2024/03/19 13:44:02;;;;;;;6.50;0.77;;;;;;;;;;5029951;28;20021;-69
2024/03/19 13:46:28;;;;;;;6.35;1.10;;;;;;;;;;5037279;28;20116;-70
2024/03/19 13:48:53;;;;;;;2.75;0.68;;;;;;;;;;5027289;28;20025;-69
2024/03/19 13:51:18;;;;;;;3.33;0.82;;;;;;;;;;5035107;28;20391;-70
2024/03/19 13:53:49;;;;;;;2.60;0.90;;;;;;;;;;5030635;28;20013;-69
2024/03/19 13:56:14;;;;;;;3.85;0.65;;;;;;;;;;5030125;28;20338;-69
2024/03/19 13:58:39;;;;;;;4.43;1.00;;;;;;;;;;5034754;28;20468;-69
2024/03/19 14:01:04;;;;;;;2.83;0.50;;;;;;;;;;5030955;28;20252;-69
2024/03/19 14:03:30;;;;;;;5.03;1.20;;;;;;;;;;5029518;28;20025;-70
2024/03/19 14:05:55;;;;;;;4.28;0.90;;;;;;;;;;5027832;28;20264;-69
2024/03/19 14:08:22;;;;;;;6.03;1.10;;;;;;;;;;5035621;28;20033;-69
2024/03/19 14:10:47;;;;;;;3.22;0.90;;;;;;;;;;5030433;28;20067;-69
2024/03/19 14:13:13;;;;;;;2.75;0.73;;;;;;;;;;5036177;28;20025;-69
2024/03/19 14:15:38;;;;;;;3.58;0.88;;;;;;;;;;5035340;28;20413;-70
2024/03/19 14:18:06;;;;;;;5.97;1.40;;;;;;;;;;5029235;28;20025;-69
2024/03/19 14:20:32;;;;;;;3.30;1.10;;;;;;;;;;5040577;28;20260;-69
2024/03/19 14:22:57;;;;;;;3.78;1.35;;;;;;;;;;5029842;28;20070;-69
2024/03/19 14:25:23;;;;;;;4.72;1.15;;;;;;;;;;5029646;28;20045;-69